KBPI/BPI METAR and TAF weather

Enter ICAO airport designator
Station Type Date Time Source
KBPI METAR 2019/08/22 08:53 UTC NOAA

KBPI 220853Z AUTO 34007KT 10SM CLR 10/01 A3013 RMK AO2 SLP100 T01000011 56010


Station Type Date Time Source
KBPI Decoded METAR 2019/08/22 08:53 UTC NOAA

Station name not available
Aug 22, 2019 - 04:53 AM EDT / 2019.08.22 0853 UTC
Wind: from the NNW (340 degrees) at 8 MPH (7 KT):0
Visibility: 10 mile(s):0
Sky conditions: clear
Temperature: 50.0 F (10.0 C)
Dew Point: 34.0 F (1.1 C)
Relative Humidity: 53%
Pressure (altimeter): 30.13 in. Hg (1020 hPa)
Pressure tendency: 0.03 inches (1.0 hPa) lower than three hours ago
ob: KBPI 220853Z AUTO 34007KT 10SM CLR 10/01 A3013 RMK AO2 SLP100 T01000011 56010
cycle: 9

Station Type Date Time Source
KBPI TAF 2019/08/22 06:36 UTC NOAA

TAF KBPI 220532Z 2206/2306 14010G15KT P6SM FEW200
FM220700 VRB06KT P6SM FEW200
FM221700 18007KT P6SM FEW150 BKN200
FM222000 26013G21KT P6SM BKN120
FM230100 32010KT P6SM SCT150

Example: see airport list